sensor_id;sensor_type;location;lat;lon;timestamp;P1;durP1;ratioP1;P2;durP2;ratioP2
28756;SDS011;44294;48.282;14.282;2023-05-29T00:00:27;0.70;;;0.70;;
28756;SDS011;44294;48.282;14.282;2023-05-29T00:03:15;0.70;;;0.70;;
28756;SDS011;44294;48.282;14.282;2023-05-29T00:06:03;0.70;;;0.70;;
28756;SDS011;44294;48.282;14.282;2023-05-29T00:08:52;0.70;;;0.70;;
28756;SDS011;44294;48.282;14.282;2023-05-29T00:11:39;0.70;;;0.70;;
28756;SDS011;44294;48.282;14.282;2023-05-29T00:14:26;0.70;;;0.70;;
28756;SDS011;44294;48.282;14.282;2023-05-29T00:17:14;0.70;;;0.70;;
28756;SDS011;44294;48.282;14.282;2023-05-29T00:20:02;0.70;;;0.70;;
28756;SDS011;44294;48.282;14.282;2023-05-29T00:22:58;0.70;;;0.70;;
28756;SDS011;44294;48.282;14.282;2023-05-29T00:25:45;0.70;;;0.70;;
28756;SDS011;44294;48.282;14.282;2023-05-29T00:28:32;0.70;;;0.70;;
28756;SDS011;44294;48.282;14.282;2023-05-29T00:31:20;0.73;;;0.73;;
28756;SDS011;44294;48.282;14.282;2023-05-29T00:34:07;0.70;;;0.70;;
28756;SDS011;44294;48.282;14.282;2023-05-29T00:36:54;0.67;;;0.67;;
28756;SDS011;44294;48.282;14.282;2023-05-29T00:39:42;0.70;;;0.70;;
28756;SDS011;44294;48.282;14.282;2023-05-29T00:42:29;0.70;;;0.70;;
28756;SDS011;44294;48.282;14.282;2023-05-29T00:45:16;0.70;;;0.70;;
28756;SDS011;44294;48.282;14.282;2023-05-29T00:48:04;0.70;;;0.70;;
28756;SDS011;44294;48.282;14.282;2023-05-29T00:50:52;0.70;;;0.70;;
28756;SDS011;44294;48.282;14.282;2023-05-29T00:53:40;0.70;;;0.70;;
28756;SDS011;44294;48.282;14.282;2023-05-29T00:56:28;0.73;;;0.73;;
28756;SDS011;44294;48.282;14.282;2023-05-29T00:59:15;0.70;;;0.70;;
28756;SDS011;44294;48.282;14.282;2023-05-29T01:02:04;0.70;;;0.70;;
28756;SDS011;44294;48.282;14.282;2023-05-29T01:04:52;0.70;;;0.70;;
28756;SDS011;44294;48.282;14.282;2023-05-29T01:07:43;0.70;;;0.70;;
28756;SDS011;44294;48.282;14.282;2023-05-29T01:10:31;0.70;;;0.70;;
28756;SDS011;44294;48.282;14.282;2023-05-29T01:13:19;0.70;;;0.70;;
28756;SDS011;44294;48.282;14.282;2023-05-29T01:16:08;0.80;;;0.80;;
28756;SDS011;44294;48.282;14.282;2023-05-29T01:24:58;0.70;;;0.70;;
28756;SDS011;44294;48.282;14.282;2023-05-29T01:27:46;0.70;;;0.70;;
28756;SDS011;44294;48.282;14.282;2023-05-29T01:30:33;0.70;;;0.70;;
28756;SDS011;44294;48.282;14.282;2023-05-29T01:33:21;0.70;;;0.70;;
28756;SDS011;44294;48.282;14.282;2023-05-29T01:36:08;0.70;;;0.70;;
28756;SDS011;44294;48.282;14.282;2023-05-29T01:38:57;0.70;;;0.70;;
28756;SDS011;44294;48.282;14.282;2023-05-29T01:41:45;0.70;;;0.70;;
28756;SDS011;44294;48.282;14.282;2023-05-29T01:44:32;0.70;;;0.70;;
28756;SDS011;44294;48.282;14.282;2023-05-29T01:47:20;0.70;;;0.70;;
28756;SDS011;44294;48.282;14.282;2023-05-29T01:50:08;0.70;;;0.70;;
28756;SDS011;44294;48.282;14.282;2023-05-29T01:52:56;0.70;;;0.70;;
28756;SDS011;44294;48.282;14.282;2023-05-29T01:55:43;0.70;;;0.70;;
28756;SDS011;44294;48.282;14.282;2023-05-29T01:58:31;0.70;;;0.70;;
28756;SDS011;44294;48.282;14.282;2023-05-29T02:01:20;0.70;;;0.70;;
28756;SDS011;44294;48.282;14.282;2023-05-29T02:04:07;0.70;;;0.70;;
28756;SDS011;44294;48.282;14.282;2023-05-29T02:06:55;0.80;;;0.80;;
28756;SDS011;44294;48.282;14.282;2023-05-29T02:09:42;0.80;;;0.80;;
28756;SDS011;44294;48.282;14.282;2023-05-29T02:12:29;0.70;;;0.70;;
28756;SDS011;44294;48.282;14.282;2023-05-29T02:15:17;0.80;;;0.80;;
28756;SDS011;44294;48.282;14.282;2023-05-29T02:18:04;0.70;;;0.70;;
28756;SDS011;44294;48.282;14.282;2023-05-29T02:20:51;0.80;;;0.80;;
28756;SDS011;44294;48.282;14.282;2023-05-29T02:23:39;0.80;;;0.80;;
28756;SDS011;44294;48.282;14.282;2023-05-29T02:26:26;0.77;;;0.77;;
28756;SDS011;44294;48.282;14.282;2023-05-29T02:29:13;0.90;;;0.90;;
28756;SDS011;44294;48.282;14.282;2023-05-29T02:32:01;0.80;;;0.80;;
28756;SDS011;44294;48.282;14.282;2023-05-29T02:34:48;0.80;;;0.80;;
28756;SDS011;44294;48.282;14.282;2023-05-29T02:37:35;0.70;;;0.70;;
28756;SDS011;44294;48.282;14.282;2023-05-29T02:40:23;0.80;;;0.80;;
28756;SDS011;44294;48.282;14.282;2023-05-29T02:43:12;0.80;;;0.80;;
28756;SDS011;44294;48.282;14.282;2023-05-29T02:45:59;0.73;;;0.73;;
28756;SDS011;44294;48.282;14.282;2023-05-29T02:48:47;0.80;;;0.80;;
28756;SDS011;44294;48.282;14.282;2023-05-29T02:51:34;0.77;;;0.77;;
28756;SDS011;44294;48.282;14.282;2023-05-29T02:54:23;0.80;;;0.80;;
28756;SDS011;44294;48.282;14.282;2023-05-29T02:57:10;0.70;;;0.70;;
28756;SDS011;44294;48.282;14.282;2023-05-29T02:59:58;0.70;;;0.70;;
28756;SDS011;44294;48.282;14.282;2023-05-29T03:02:45;0.70;;;0.70;;
28756;SDS011;44294;48.282;14.282;2023-05-29T03:05:33;0.80;;;0.80;;
28756;SDS011;44294;48.282;14.282;2023-05-29T03:08:20;0.80;;;0.80;;
28756;SDS011;44294;48.282;14.282;2023-05-29T03:11:07;0.80;;;0.80;;
28756;SDS011;44294;48.282;14.282;2023-05-29T03:13:58;0.80;;;0.80;;
28756;SDS011;44294;48.282;14.282;2023-05-29T03:16:45;0.80;;;0.80;;
28756;SDS011;44294;48.282;14.282;2023-05-29T03:19:32;0.60;;;0.60;;
28756;SDS011;44294;48.282;14.282;2023-05-29T03:22:20;0.70;;;0.70;;
28756;SDS011;44294;48.282;14.282;2023-05-29T03:25:07;0.80;;;0.80;;
28756;SDS011;44294;48.282;14.282;2023-05-29T03:27:55;0.70;;;0.70;;
28756;SDS011;44294;48.282;14.282;2023-05-29T03:30:42;0.80;;;0.80;;
28756;SDS011;44294;48.282;14.282;2023-05-29T03:33:29;0.80;;;0.80;;
28756;SDS011;44294;48.282;14.282;2023-05-29T03:36:17;0.70;;;0.70;;
28756;SDS011;44294;48.282;14.282;2023-05-29T03:39:04;0.77;;;0.77;;
28756;SDS011;44294;48.282;14.282;2023-05-29T03:41:52;0.70;;;0.70;;
28756;SDS011;44294;48.282;14.282;2023-05-29T03:44:40;0.80;;;0.80;;
28756;SDS011;44294;48.282;14.282;2023-05-29T03:47:27;0.80;;;0.80;;
28756;SDS011;44294;48.282;14.282;2023-05-29T03:50:14;0.80;;;0.80;;
28756;SDS011;44294;48.282;14.282;2023-05-29T03:53:02;0.70;;;0.70;;
28756;SDS011;44294;48.282;14.282;2023-05-29T03:55:49;0.80;;;0.80;;
28756;SDS011;44294;48.282;14.282;2023-05-29T03:58:36;0.70;;;0.70;;
28756;SDS011;44294;48.282;14.282;2023-05-29T04:01:24;0.77;;;0.77;;
28756;SDS011;44294;48.282;14.282;2023-05-29T04:04:12;0.80;;;0.80;;
28756;SDS011;44294;48.282;14.282;2023-05-29T04:06:59;0.70;;;0.70;;
28756;SDS011;44294;48.282;14.282;2023-05-29T04:09:47;0.70;;;0.70;;
28756;SDS011;44294;48.282;14.282;2023-05-29T04:12:34;0.80;;;0.80;;
28756;SDS011;44294;48.282;14.282;2023-05-29T04:15:22;0.80;;;0.80;;
28756;SDS011;44294;48.282;14.282;2023-05-29T04:18:10;0.80;;;0.80;;
28756;SDS011;44294;48.282;14.282;2023-05-29T04:20:57;0.80;;;0.80;;
28756;SDS011;44294;48.282;14.282;2023-05-29T04:23:45;0.70;;;0.70;;
28756;SDS011;44294;48.282;14.282;2023-05-29T04:26:32;0.80;;;0.80;;
28756;SDS011;44294;48.282;14.282;2023-05-29T04:29:19;0.80;;;0.80;;
28756;SDS011;44294;48.282;14.282;2023-05-29T04:32:07;0.80;;;0.80;;
28756;SDS011;44294;48.282;14.282;2023-05-29T04:34:55;0.70;;;0.70;;
28756;SDS011;44294;48.282;14.282;2023-05-29T04:37:43;0.70;;;0.70;;
28756;SDS011;44294;48.282;14.282;2023-05-29T04:40:30;0.80;;;0.80;;
28756;SDS011;44294;48.282;14.282;2023-05-29T04:43:19;0.80;;;0.80;;
28756;SDS011;44294;48.282;14.282;2023-05-29T04:46:06;0.70;;;0.70;;
28756;SDS011;44294;48.282;14.282;2023-05-29T04:48:55;0.70;;;0.70;;
28756;SDS011;44294;48.282;14.282;2023-05-29T04:51:43;0.70;;;0.70;;
28756;SDS011;44294;48.282;14.282;2023-05-29T04:54:30;0.73;;;0.73;;
28756;SDS011;44294;48.282;14.282;2023-05-29T04:57:19;0.70;;;0.70;;
28756;SDS011;44294;48.282;14.282;2023-05-29T05:00:07;0.70;;;0.70;;
28756;SDS011;44294;48.282;14.282;2023-05-29T05:03:01;0.70;;;0.70;;
28756;SDS011;44294;48.282;14.282;2023-05-29T05:05:48;0.70;;;0.70;;
28756;SDS011;44294;48.282;14.282;2023-05-29T05:08:35;0.70;;;0.70;;
28756;SDS011;44294;48.282;14.282;2023-05-29T05:11:23;0.70;;;0.70;;
28756;SDS011;44294;48.282;14.282;2023-05-29T05:14:11;0.70;;;0.70;;
28756;SDS011;44294;48.282;14.282;2023-05-29T05:16:58;0.70;;;0.70;;
28756;SDS011;44294;48.282;14.282;2023-05-29T05:19:46;0.70;;;0.70;;
28756;SDS011;44294;48.282;14.282;2023-05-29T05:22:35;0.70;;;0.70;;
28756;SDS011;44294;48.282;14.282;2023-05-29T05:25:22;0.70;;;0.70;;
28756;SDS011;44294;48.282;14.282;2023-05-29T05:28:09;0.70;;;0.70;;
28756;SDS011;44294;48.282;14.282;2023-05-29T05:30:57;0.70;;;0.70;;
28756;SDS011;44294;48.282;14.282;2023-05-29T05:33:44;0.70;;;0.70;;
28756;SDS011;44294;48.282;14.282;2023-05-29T05:36:32;0.70;;;0.70;;
28756;SDS011;44294;48.282;14.282;2023-05-29T05:39:19;0.70;;;0.70;;
28756;SDS011;44294;48.282;14.282;2023-05-29T05:42:06;0.60;;;0.60;;
28756;SDS011;44294;48.282;14.282;2023-05-29T05:44:54;0.70;;;0.70;;
28756;SDS011;44294;48.282;14.282;2023-05-29T05:47:41;0.63;;;0.63;;
28756;SDS011;44294;48.282;14.282;2023-05-29T05:50:28;0.70;;;0.70;;
28756;SDS011;44294;48.282;14.282;2023-05-29T05:53:16;0.70;;;0.70;;
28756;SDS011;44294;48.282;14.282;2023-05-29T05:56:03;0.60;;;0.60;;
28756;SDS011;44294;48.282;14.282;2023-05-29T05:58:50;0.70;;;0.70;;
28756;SDS011;44294;48.282;14.282;2023-05-29T06:01:38;0.70;;;0.70;;
28756;SDS011;44294;48.282;14.282;2023-05-29T06:04:27;0.70;;;0.70;;
28756;SDS011;44294;48.282;14.282;2023-05-29T06:07:14;0.70;;;0.70;;
28756;SDS011;44294;48.282;14.282;2023-05-29T06:10:02;0.70;;;0.70;;
28756;SDS011;44294;48.282;14.282;2023-05-29T06:12:50;0.70;;;0.70;;
28756;SDS011;44294;48.282;14.282;2023-05-29T06:15:38;0.67;;;0.67;;
28756;SDS011;44294;48.282;14.282;2023-05-29T06:18:25;0.70;;;0.70;;
28756;SDS011;44294;48.282;14.282;2023-05-29T06:21:13;0.70;;;0.70;;
28756;SDS011;44294;48.282;14.282;2023-05-29T06:24:00;0.70;;;0.70;;
28756;SDS011;44294;48.282;14.282;2023-05-29T06:26:48;0.70;;;0.70;;
28756;SDS011;44294;48.282;14.282;2023-05-29T06:29:36;0.70;;;0.70;;
28756;SDS011;44294;48.282;14.282;2023-05-29T06:32:23;0.70;;;0.70;;
28756;SDS011;44294;48.282;14.282;2023-05-29T06:35:11;0.70;;;0.70;;
28756;SDS011;44294;48.282;14.282;2023-05-29T06:37:58;0.70;;;0.70;;
28756;SDS011;44294;48.282;14.282;2023-05-29T06:40:45;0.70;;;0.70;;
28756;SDS011;44294;48.282;14.282;2023-05-29T06:43:33;0.60;;;0.60;;
28756;SDS011;44294;48.282;14.282;2023-05-29T06:46:20;0.60;;;0.60;;
28756;SDS011;44294;48.282;14.282;2023-05-29T06:49:07;0.60;;;0.60;;
28756;SDS011;44294;48.282;14.282;2023-05-29T06:51:54;0.70;;;0.70;;
28756;SDS011;44294;48.282;14.282;2023-05-29T06:54:42;0.70;;;0.70;;
28756;SDS011;44294;48.282;14.282;2023-05-29T06:57:29;0.60;;;0.60;;
28756;SDS011;44294;48.282;14.282;2023-05-29T07:00:17;0.60;;;0.60;;
28756;SDS011;44294;48.282;14.282;2023-05-29T07:03:04;0.60;;;0.60;;
28756;SDS011;44294;48.282;14.282;2023-05-29T07:05:51;0.60;;;0.60;;
28756;SDS011;44294;48.282;14.282;2023-05-29T07:08:39;0.60;;;0.60;;
28756;SDS011;44294;48.282;14.282;2023-05-29T07:11:26;0.60;;;0.60;;
28756;SDS011;44294;48.282;14.282;2023-05-29T07:14:14;0.60;;;0.60;;
28756;SDS011;44294;48.282;14.282;2023-05-29T07:17:02;0.70;;;0.70;;
28756;SDS011;44294;48.282;14.282;2023-05-29T07:19:49;0.60;;;0.60;;
28756;SDS011;44294;48.282;14.282;2023-05-29T07:22:36;0.60;;;0.60;;
28756;SDS011;44294;48.282;14.282;2023-05-29T07:25:24;0.50;;;0.50;;
28756;SDS011;44294;48.282;14.282;2023-05-29T07:28:12;0.60;;;0.60;;
28756;SDS011;44294;48.282;14.282;2023-05-29T07:30:59;0.70;;;0.70;;
28756;SDS011;44294;48.282;14.282;2023-05-29T07:33:47;0.60;;;0.60;;
28756;SDS011;44294;48.282;14.282;2023-05-29T07:36:35;0.70;;;0.70;;
28756;SDS011;44294;48.282;14.282;2023-05-29T07:39:23;0.60;;;0.60;;
28756;SDS011;44294;48.282;14.282;2023-05-29T07:42:10;0.70;;;0.70;;
28756;SDS011;44294;48.282;14.282;2023-05-29T07:44:58;0.60;;;0.60;;
28756;SDS011;44294;48.282;14.282;2023-05-29T07:47:45;0.60;;;0.60;;
28756;SDS011;44294;48.282;14.282;2023-05-29T07:50:33;0.60;;;0.60;;
28756;SDS011;44294;48.282;14.282;2023-05-29T07:53:20;0.70;;;0.70;;
28756;SDS011;44294;48.282;14.282;2023-05-29T07:56:07;0.60;;;0.60;;
28756;SDS011;44294;48.282;14.282;2023-05-29T07:58:55;0.60;;;0.60;;
28756;SDS011;44294;48.282;14.282;2023-05-29T08:01:42;0.60;;;0.60;;
28756;SDS011;44294;48.282;14.282;2023-05-29T08:04:30;0.70;;;0.70;;
28756;SDS011;44294;48.282;14.282;2023-05-29T08:07:18;0.60;;;0.60;;
28756;SDS011;44294;48.282;14.282;2023-05-29T08:10:07;0.60;;;0.60;;
28756;SDS011;44294;48.282;14.282;2023-05-29T08:12:54;0.60;;;0.60;;
28756;SDS011;44294;48.282;14.282;2023-05-29T08:15:42;0.60;;;0.60;;
28756;SDS011;44294;48.282;14.282;2023-05-29T08:18:30;0.60;;;0.60;;
28756;SDS011;44294;48.282;14.282;2023-05-29T08:21:17;0.60;;;0.60;;
28756;SDS011;44294;48.282;14.282;2023-05-29T08:24:05;0.60;;;0.60;;
28756;SDS011;44294;48.282;14.282;2023-05-29T08:26:52;0.60;;;0.60;;
28756;SDS011;44294;48.282;14.282;2023-05-29T08:29:40;0.60;;;0.60;;
28756;SDS011;44294;48.282;14.282;2023-05-29T08:32:27;0.53;;;0.53;;
28756;SDS011;44294;48.282;14.282;2023-05-29T08:35:14;0.60;;;0.60;;
28756;SDS011;44294;48.282;14.282;2023-05-29T08:38:02;0.60;;;0.60;;
28756;SDS011;44294;48.282;14.282;2023-05-29T08:40:50;0.60;;;0.60;;
28756;SDS011;44294;48.282;14.282;2023-05-29T08:43:37;0.50;;;0.50;;
28756;SDS011;44294;48.282;14.282;2023-05-29T08:46:26;0.60;;;0.60;;
28756;SDS011;44294;48.282;14.282;2023-05-29T08:49:14;0.50;;;0.50;;
28756;SDS011;44294;48.282;14.282;2023-05-29T08:52:05;0.50;;;0.50;;
28756;SDS011;44294;48.282;14.282;2023-05-29T08:54:52;0.50;;;0.50;;
28756;SDS011;44294;48.282;14.282;2023-05-29T08:57:40;0.60;;;0.60;;
28756;SDS011;44294;48.282;14.282;2023-05-29T09:00:29;0.60;;;0.60;;
28756;SDS011;44294;48.282;14.282;2023-05-29T09:03:16;0.60;;;0.60;;
28756;SDS011;44294;48.282;14.282;2023-05-29T09:06:04;0.50;;;0.50;;
28756;SDS011;44294;48.282;14.282;2023-05-29T09:08:53;0.60;;;0.60;;
28756;SDS011;44294;48.282;14.282;2023-05-29T09:11:40;0.50;;;0.50;;
28756;SDS011;44294;48.282;14.282;2023-05-29T09:14:40;0.60;;;0.60;;
28756;SDS011;44294;48.282;14.282;2023-05-29T09:17:31;0.60;;;0.60;;
28756;SDS011;44294;48.282;14.282;2023-05-29T09:20:20;0.50;;;0.50;;
28756;SDS011;44294;48.282;14.282;2023-05-29T09:23:10;0.50;;;0.50;;
28756;SDS011;44294;48.282;14.282;2023-05-29T09:25:58;0.60;;;0.60;;
28756;SDS011;44294;48.282;14.282;2023-05-29T09:28:45;0.60;;;0.60;;
28756;SDS011;44294;48.282;14.282;2023-05-29T09:31:33;0.60;;;0.60;;
28756;SDS011;44294;48.282;14.282;2023-05-29T09:34:23;0.60;;;0.60;;
28756;SDS011;44294;48.282;14.282;2023-05-29T09:37:12;0.60;;;0.60;;
28756;SDS011;44294;48.282;14.282;2023-05-29T09:40:00;0.50;;;0.50;;
28756;SDS011;44294;48.282;14.282;2023-05-29T09:42:47;0.50;;;0.50;;
28756;SDS011;44294;48.282;14.282;2023-05-29T09:45:41;0.60;;;0.60;;
28756;SDS011;44294;48.282;14.282;2023-05-29T09:48:29;0.60;;;0.60;;
28756;SDS011;44294;48.282;14.282;2023-05-29T09:51:20;0.60;;;0.60;;
28756;SDS011;44294;48.282;14.282;2023-05-29T09:54:17;0.50;;;0.50;;
28756;SDS011;44294;48.282;14.282;2023-05-29T09:57:05;0.50;;;0.50;;
28756;SDS011;44294;48.282;14.282;2023-05-29T09:59:53;0.60;;;0.60;;
28756;SDS011;44294;48.282;14.282;2023-05-29T10:02:40;0.50;;;0.50;;
28756;SDS011;44294;48.282;14.282;2023-05-29T10:05:27;0.60;;;0.60;;
28756;SDS011;44294;48.282;14.282;2023-05-29T10:08:15;0.57;;;0.57;;
28756;SDS011;44294;48.282;14.282;2023-05-29T10:11:04;0.50;;;0.50;;
28756;SDS011;44294;48.282;14.282;2023-05-29T10:13:53;0.60;;;0.60;;
28756;SDS011;44294;48.282;14.282;2023-05-29T10:16:42;0.60;;;0.60;;
28756;SDS011;44294;48.282;14.282;2023-05-29T10:19:30;0.50;;;0.50;;
28756;SDS011;44294;48.282;14.282;2023-05-29T10:22:19;0.50;;;0.50;;
28756;SDS011;44294;48.282;14.282;2023-05-29T10:25:08;0.50;;;0.50;;
28756;SDS011;44294;48.282;14.282;2023-05-29T10:27:56;0.50;;;0.50;;
28756;SDS011;44294;48.282;14.282;2023-05-29T10:30:49;0.50;;;0.50;;
28756;SDS011;44294;48.282;14.282;2023-05-29T10:36:27;0.50;;;0.50;;
28756;SDS011;44294;48.282;14.282;2023-05-29T10:39:14;0.50;;;0.50;;
28756;SDS011;44294;48.282;14.282;2023-05-29T10:42:02;0.50;;;0.50;;
28756;SDS011;44294;48.282;14.282;2023-05-29T10:44:49;0.50;;;0.50;;
28756;SDS011;44294;48.282;14.282;2023-05-29T10:47:37;0.50;;;0.50;;
28756;SDS011;44294;48.282;14.282;2023-05-29T10:50:43;0.50;;;0.50;;
28756;SDS011;44294;48.282;14.282;2023-05-29T10:53:31;0.50;;;0.50;;
28756;SDS011;44294;48.282;14.282;2023-05-29T10:56:22;0.50;;;0.50;;
28756;SDS011;44294;48.282;14.282;2023-05-29T10:59:10;0.50;;;0.50;;
28756;SDS011;44294;48.282;14.282;2023-05-29T11:01:57;0.50;;;0.50;;
28756;SDS011;44294;48.282;14.282;2023-05-29T11:05:03;0.50;;;0.50;;
28756;SDS011;44294;48.282;14.282;2023-05-29T11:07:50;0.50;;;0.50;;
28756;SDS011;44294;48.282;14.282;2023-05-29T11:13:34;0.50;;;0.50;;
28756;SDS011;44294;48.282;14.282;2023-05-29T11:19:16;0.50;;;0.50;;
28756;SDS011;44294;48.282;14.282;2023-05-29T11:22:09;0.50;;;0.50;;
28756;SDS011;44294;48.282;14.282;2023-05-29T11:24:53;0.50;;;0.50;;
28756;SDS011;44294;48.282;14.282;2023-05-29T11:27:44;0.50;;;0.50;;
28756;SDS011;44294;48.282;14.282;2023-05-29T11:30:32;0.50;;;0.50;;
28756;SDS011;44294;48.282;14.282;2023-05-29T11:33:24;0.50;;;0.50;;
28756;SDS011;44294;48.282;14.282;2023-05-29T11:36:12;0.50;;;0.50;;
28756;SDS011;44294;48.282;14.282;2023-05-29T11:38:59;0.50;;;0.50;;
28756;SDS011;44294;48.282;14.282;2023-05-29T11:41:49;0.50;;;0.50;;
28756;SDS011;44294;48.282;14.282;2023-05-29T11:44:35;0.50;;;0.50;;
28756;SDS011;44294;48.282;14.282;2023-05-29T11:47:23;0.50;;;0.50;;
28756;SDS011;44294;48.282;14.282;2023-05-29T11:50:19;0.50;;;0.50;;
28756;SDS011;44294;48.282;14.282;2023-05-29T11:53:07;0.50;;;0.50;;
28756;SDS011;44294;48.282;14.282;2023-05-29T11:56:05;0.70;;;0.70;;
28756;SDS011;44294;48.282;14.282;2023-05-29T11:58:43;0.50;;;0.50;;
28756;SDS011;44294;48.282;14.282;2023-05-29T12:01:33;0.40;;;0.40;;
28756;SDS011;44294;48.282;14.282;2023-05-29T12:04:21;0.40;;;0.40;;
28756;SDS011;44294;48.282;14.282;2023-05-29T12:07:17;0.50;;;0.50;;
28756;SDS011;44294;48.282;14.282;2023-05-29T12:10:11;0.50;;;0.50;;
28756;SDS011;44294;48.282;14.282;2023-05-29T12:12:59;0.50;;;0.50;;
28756;SDS011;44294;48.282;14.282;2023-05-29T12:15:51;0.50;;;0.50;;
28756;SDS011;44294;48.282;14.282;2023-05-29T12:18:38;0.50;;;0.50;;
28756;SDS011;44294;48.282;14.282;2023-05-29T12:21:26;0.40;;;0.40;;
28756;SDS011;44294;48.282;14.282;2023-05-29T12:24:13;0.50;;;0.50;;
28756;SDS011;44294;48.282;14.282;2023-05-29T12:27:03;0.40;;;0.40;;
28756;SDS011;44294;48.282;14.282;2023-05-29T12:29:58;0.50;;;0.50;;
28756;SDS011;44294;48.282;14.282;2023-05-29T12:32:39;0.50;;;0.50;;
28756;SDS011;44294;48.282;14.282;2023-05-29T12:35:30;0.50;;;0.50;;
28756;SDS011;44294;48.282;14.282;2023-05-29T12:38:18;0.50;;;0.50;;
28756;SDS011;44294;48.282;14.282;2023-05-29T12:41:07;0.50;;;0.50;;
28756;SDS011;44294;48.282;14.282;2023-05-29T12:43:57;0.50;;;0.50;;
28756;SDS011;44294;48.282;14.282;2023-05-29T12:46:45;0.50;;;0.50;;
28756;SDS011;44294;48.282;14.282;2023-05-29T12:49:35;0.50;;;0.50;;
28756;SDS011;44294;48.282;14.282;2023-05-29T12:52:21;0.50;;;0.50;;
28756;SDS011;44294;48.282;14.282;2023-05-29T12:55:10;0.50;;;0.50;;
28756;SDS011;44294;48.282;14.282;2023-05-29T12:57:58;0.50;;;0.50;;
28756;SDS011;44294;48.282;14.282;2023-05-29T13:00:45;0.50;;;0.50;;
28756;SDS011;44294;48.282;14.282;2023-05-29T13:03:32;0.50;;;0.50;;
28756;SDS011;44294;48.282;14.282;2023-05-29T13:06:20;0.50;;;0.50;;
28756;SDS011;44294;48.282;14.282;2023-05-29T13:09:07;0.50;;;0.50;;
28756;SDS011;44294;48.282;14.282;2023-05-29T13:11:55;0.50;;;0.50;;
28756;SDS011;44294;48.282;14.282;2023-05-29T13:14:42;0.50;;;0.50;;
28756;SDS011;44294;48.282;14.282;2023-05-29T13:17:30;0.50;;;0.50;;
28756;SDS011;44294;48.282;14.282;2023-05-29T13:20:17;0.50;;;0.50;;
28756;SDS011;44294;48.282;14.282;2023-05-29T13:23:04;0.50;;;0.50;;
28756;SDS011;44294;48.282;14.282;2023-05-29T13:25:51;0.47;;;0.47;;
28756;SDS011;44294;48.282;14.282;2023-05-29T13:28:39;0.50;;;0.50;;
28756;SDS011;44294;48.282;14.282;2023-05-29T13:31:26;0.50;;;0.50;;
28756;SDS011;44294;48.282;14.282;2023-05-29T13:34:13;0.50;;;0.50;;
28756;SDS011;44294;48.282;14.282;2023-05-29T13:37:00;0.50;;;0.50;;
28756;SDS011;44294;48.282;14.282;2023-05-29T13:39:48;0.50;;;0.50;;
28756;SDS011;44294;48.282;14.282;2023-05-29T13:42:35;0.50;;;0.50;;
28756;SDS011;44294;48.282;14.282;2023-05-29T13:45:23;0.50;;;0.50;;
28756;SDS011;44294;48.282;14.282;2023-05-29T13:48:10;0.50;;;0.50;;
28756;SDS011;44294;48.282;14.282;2023-05-29T13:50:57;0.50;;;0.50;;
28756;SDS011;44294;48.282;14.282;2023-05-29T13:53:45;0.50;;;0.50;;
28756;SDS011;44294;48.282;14.282;2023-05-29T13:56:32;0.50;;;0.50;;
28756;SDS011;44294;48.282;14.282;2023-05-29T13:59:19;0.50;;;0.50;;
28756;SDS011;44294;48.282;14.282;2023-05-29T14:02:06;0.50;;;0.50;;
28756;SDS011;44294;48.282;14.282;2023-05-29T14:04:54;0.50;;;0.50;;
28756;SDS011;44294;48.282;14.282;2023-05-29T14:07:42;0.50;;;0.50;;
28756;SDS011;44294;48.282;14.282;2023-05-29T14:10:29;0.50;;;0.50;;
28756;SDS011;44294;48.282;14.282;2023-05-29T14:13:17;0.50;;;0.50;;
28756;SDS011;44294;48.282;14.282;2023-05-29T14:16:04;0.50;;;0.50;;
28756;SDS011;44294;48.282;14.282;2023-05-29T14:18:51;0.50;;;0.50;;
28756;SDS011;44294;48.282;14.282;2023-05-29T14:21:39;0.50;;;0.50;;
28756;SDS011;44294;48.282;14.282;2023-05-29T14:24:26;0.50;;;0.50;;
28756;SDS011;44294;48.282;14.282;2023-05-29T14:27:13;0.60;;;0.60;;
28756;SDS011;44294;48.282;14.282;2023-05-29T14:30:01;0.50;;;0.50;;
28756;SDS011;44294;48.282;14.282;2023-05-29T14:32:49;0.50;;;0.50;;
28756;SDS011;44294;48.282;14.282;2023-05-29T14:35:36;0.50;;;0.50;;
28756;SDS011;44294;48.282;14.282;2023-05-29T14:38:24;0.50;;;0.50;;
28756;SDS011;44294;48.282;14.282;2023-05-29T14:41:11;0.60;;;0.60;;
28756;SDS011;44294;48.282;14.282;2023-05-29T14:43:59;0.50;;;0.50;;
28756;SDS011;44294;48.282;14.282;2023-05-29T14:46:46;0.50;;;0.50;;
28756;SDS011;44294;48.282;14.282;2023-05-29T14:49:33;0.50;;;0.50;;
28756;SDS011;44294;48.282;14.282;2023-05-29T14:52:21;0.50;;;0.50;;
28756;SDS011;44294;48.282;14.282;2023-05-29T14:55:08;0.50;;;0.50;;
28756;SDS011;44294;48.282;14.282;2023-05-29T14:57:56;0.50;;;0.50;;
28756;SDS011;44294;48.282;14.282;2023-05-29T15:00:43;0.50;;;0.50;;
28756;SDS011;44294;48.282;14.282;2023-05-29T15:03:30;0.50;;;0.50;;
28756;SDS011;44294;48.282;14.282;2023-05-29T15:06:18;0.60;;;0.60;;
28756;SDS011;44294;48.282;14.282;2023-05-29T15:09:05;0.50;;;0.50;;
28756;SDS011;44294;48.282;14.282;2023-05-29T15:11:52;0.50;;;0.50;;
28756;SDS011;44294;48.282;14.282;2023-05-29T15:14:40;0.50;;;0.50;;
28756;SDS011;44294;48.282;14.282;2023-05-29T15:17:27;0.50;;;0.50;;
28756;SDS011;44294;48.282;14.282;2023-05-29T15:20:14;0.50;;;0.50;;
28756;SDS011;44294;48.282;14.282;2023-05-29T15:23:03;0.50;;;0.50;;
28756;SDS011;44294;48.282;14.282;2023-05-29T15:25:52;0.50;;;0.50;;
28756;SDS011;44294;48.282;14.282;2023-05-29T15:28:39;0.40;;;0.40;;
28756;SDS011;44294;48.282;14.282;2023-05-29T15:31:26;0.50;;;0.50;;
28756;SDS011;44294;48.282;14.282;2023-05-29T15:34:14;0.50;;;0.50;;
28756;SDS011;44294;48.282;14.282;2023-05-29T15:37:01;0.50;;;0.50;;
28756;SDS011;44294;48.282;14.282;2023-05-29T15:39:48;0.47;;;0.47;;
28756;SDS011;44294;48.282;14.282;2023-05-29T15:42:36;0.50;;;0.50;;
28756;SDS011;44294;48.282;14.282;2023-05-29T15:45:23;0.50;;;0.50;;
28756;SDS011;44294;48.282;14.282;2023-05-29T15:48:11;0.50;;;0.50;;
28756;SDS011;44294;48.282;14.282;2023-05-29T15:50:58;0.50;;;0.50;;
28756;SDS011;44294;48.282;14.282;2023-05-29T15:53:46;0.50;;;0.50;;
28756;SDS011;44294;48.282;14.282;2023-05-29T15:56:33;0.50;;;0.50;;
28756;SDS011;44294;48.282;14.282;2023-05-29T15:59:21;0.50;;;0.50;;
28756;SDS011;44294;48.282;14.282;2023-05-29T16:02:08;0.50;;;0.50;;
28756;SDS011;44294;48.282;14.282;2023-05-29T16:04:56;0.50;;;0.50;;
28756;SDS011;44294;48.282;14.282;2023-05-29T16:07:43;0.50;;;0.50;;
28756;SDS011;44294;48.282;14.282;2023-05-29T16:10:32;0.50;;;0.50;;
28756;SDS011;44294;48.282;14.282;2023-05-29T16:13:20;0.60;;;0.60;;
28756;SDS011;44294;48.282;14.282;2023-05-29T16:16:07;0.50;;;0.50;;
28756;SDS011;44294;48.282;14.282;2023-05-29T16:18:55;0.50;;;0.50;;
28756;SDS011;44294;48.282;14.282;2023-05-29T16:21:42;0.50;;;0.50;;
28756;SDS011;44294;48.282;14.282;2023-05-29T16:24:30;0.50;;;0.50;;
28756;SDS011;44294;48.282;14.282;2023-05-29T16:27:17;0.50;;;0.50;;
28756;SDS011;44294;48.282;14.282;2023-05-29T16:30:05;0.50;;;0.50;;
28756;SDS011;44294;48.282;14.282;2023-05-29T16:32:53;0.60;;;0.60;;
28756;SDS011;44294;48.282;14.282;2023-05-29T16:35:40;0.50;;;0.50;;
28756;SDS011;44294;48.282;14.282;2023-05-29T16:38:28;0.60;;;0.60;;
28756;SDS011;44294;48.282;14.282;2023-05-29T16:41:15;0.50;;;0.50;;
28756;SDS011;44294;48.282;14.282;2023-05-29T16:44:02;0.50;;;0.50;;
28756;SDS011;44294;48.282;14.282;2023-05-29T16:46:49;0.50;;;0.50;;
28756;SDS011;44294;48.282;14.282;2023-05-29T16:49:37;0.50;;;0.50;;